sensor_id;sensor_type;location;lat;lon;timestamp;P1;P2;P0
59179;PMS7003;44956;52.422;20.818;2024-01-06T00:02:34;21.00;16.50;8.50
59179;PMS7003;44956;52.422;20.818;2024-01-06T00:05:37;25.00;16.00;10.00
59179;PMS7003;44956;52.422;20.818;2024-01-06T00:08:40;19.25;17.25;9.50
59179;PMS7003;44956;52.422;20.818;2024-01-06T00:11:43;19.00;18.00;12.00
59179;PMS7003;44956;52.422;20.818;2024-01-06T00:14:45;22.00;16.75;8.50
59179;PMS7003;44956;52.422;20.818;2024-01-06T00:17:48;24.50;18.75;9.75
59179;PMS7003;44956;52.422;20.818;2024-01-06T00:20:51;23.00;18.00;9.75
59179;PMS7003;44956;52.422;20.818;2024-01-06T00:23:54;24.50;18.50;10.50
59179;PMS7003;44956;52.422;20.818;2024-01-06T00:26:58;26.00;20.50;9.50
59179;PMS7003;44956;52.422;20.818;2024-01-06T00:30:01;28.25;21.25;12.50
59179;PMS7003;44956;52.422;20.818;2024-01-06T00:33:03;24.75;21.75;12.50
59179;PMS7003;44956;52.422;20.818;2024-01-06T00:36:07;30.25;22.50;12.75
59179;PMS7003;44956;52.422;20.818;2024-01-06T00:39:10;24.25;22.00;12.75
59179;PMS7003;44956;52.422;20.818;2024-01-06T00:42:12;30.75;20.50;10.00
59179;PMS7003;44956;52.422;20.818;2024-01-06T00:45:15;20.50;18.75;9.00
59179;PMS7003;44956;52.422;20.818;2024-01-06T00:48:18;22.50;19.50;12.00
59179;PMS7003;44956;52.422;20.818;2024-01-06T00:51:21;30.25;25.00;12.00
59179;PMS7003;44956;52.422;20.818;2024-01-06T00:54:24;29.50;22.25;12.25
59179;PMS7003;44956;52.422;20.818;2024-01-06T00:57:27;34.00;28.25;15.25
59179;PMS7003;44956;52.422;20.818;2024-01-06T01:00:30;34.00;28.00;15.00
59179;PMS7003;44956;52.422;20.818;2024-01-06T01:03:32;35.50;22.00;11.50
59179;PMS7003;44956;52.422;20.818;2024-01-06T01:06:36;33.50;29.00;15.00
59179;PMS7003;44956;52.422;20.818;2024-01-06T01:09:39;41.75;30.25;18.00
59179;PMS7003;44956;52.422;20.818;2024-01-06T01:12:42;28.50;27.00;15.00
59179;PMS7003;44956;52.422;20.818;2024-01-06T01:15:44;35.75;30.25;13.50
59179;PMS7003;44956;52.422;20.818;2024-01-06T01:18:48;35.25;25.25;15.75
59179;PMS7003;44956;52.422;20.818;2024-01-06T01:21:50;29.50;20.50;11.00
59179;PMS7003;44956;52.422;20.818;2024-01-06T01:24:57;33.50;27.00;11.00
59179;PMS7003;44956;52.422;20.818;2024-01-06T01:28:00;31.00;19.50;12.00
59179;PMS7003;44956;52.422;20.818;2024-01-06T01:31:03;26.00;24.50;15.00
59179;PMS7003;44956;52.422;20.818;2024-01-06T01:34:08;30.50;27.50;13.50
59179;PMS7003;44956;52.422;20.818;2024-01-06T01:37:11;30.50;22.00;12.00
59179;PMS7003;44956;52.422;20.818;2024-01-06T01:40:14;26.25;21.00;12.00
59179;PMS7003;44956;52.422;20.818;2024-01-06T01:43:20;26.50;17.50;8.50
59179;PMS7003;44956;52.422;20.818;2024-01-06T01:46:26;28.50;25.00;12.00
59179;PMS7003;44956;52.422;20.818;2024-01-06T01:49:30;25.50;22.00;12.00
59179;PMS7003;44956;52.422;20.818;2024-01-06T01:52:35;30.25;22.50;11.00
59179;PMS7003;44956;52.422;20.818;2024-01-06T01:55:39;32.50;21.00;12.75
59179;PMS7003;44956;52.422;20.818;2024-01-06T01:58:42;34.75;27.25;13.25
59179;PMS7003;44956;52.422;20.818;2024-01-06T02:01:45;26.75;22.00;12.25
59179;PMS7003;44956;52.422;20.818;2024-01-06T02:04:48;24.25;22.00;12.00
59179;PMS7003;44956;52.422;20.818;2024-01-06T02:07:51;18.50;12.50;6.00
59179;PMS7003;44956;52.422;20.818;2024-01-06T02:10:54;23.50;16.50;10.00
59179;PMS7003;44956;52.422;20.818;2024-01-06T02:13:58;25.75;21.50;13.50
59179;PMS7003;44956;52.422;20.818;2024-01-06T02:17:01;27.75;21.50;12.00
59179;PMS7003;44956;52.422;20.818;2024-01-06T02:20:04;23.25;20.75;10.25
59179;PMS7003;44956;52.422;20.818;2024-01-06T02:23:09;26.75;21.00;10.00
59179;PMS7003;44956;52.422;20.818;2024-01-06T02:26:12;26.00;22.00;15.25
59179;PMS7003;44956;52.422;20.818;2024-01-06T02:29:17;28.25;25.50;12.50
59179;PMS7003;44956;52.422;20.818;2024-01-06T02:32:20;30.25;23.50;12.00
59179;PMS7003;44956;52.422;20.818;2024-01-06T02:35:22;26.75;21.00;13.00
59179;PMS7003;44956;52.422;20.818;2024-01-06T02:38:25;27.50;20.50;10.00
59179;PMS7003;44956;52.422;20.818;2024-01-06T02:41:28;29.00;21.25;12.25
59179;PMS7003;44956;52.422;20.818;2024-01-06T02:44:31;34.50;24.25;13.00
59179;PMS7003;44956;52.422;20.818;2024-01-06T02:47:34;27.50;23.00;12.25
59179;PMS7003;44956;52.422;20.818;2024-01-06T02:50:36;25.50;24.75;13.50
59179;PMS7003;44956;52.422;20.818;2024-01-06T02:53:39;21.25;18.50;12.25
59179;PMS7003;44956;52.422;20.818;2024-01-06T02:56:42;29.75;22.00;13.00
59179;PMS7003;44956;52.422;20.818;2024-01-06T02:59:44;28.00;22.50;15.50
59179;PMS7003;44956;52.422;20.818;2024-01-06T03:02:47;26.50;22.00;10.00
59179;PMS7003;44956;52.422;20.818;2024-01-06T03:05:50;27.75;21.25;14.50
59179;PMS7003;44956;52.422;20.818;2024-01-06T03:08:53;32.00;25.75;15.00
59179;PMS7003;44956;52.422;20.818;2024-01-06T03:11:55;21.25;18.75;10.00
59179;PMS7003;44956;52.422;20.818;2024-01-06T03:14:58;31.75;21.25;13.00
59179;PMS7003;44956;52.422;20.818;2024-01-06T03:18:00;30.50;24.75;15.00
59179;PMS7003;44956;52.422;20.818;2024-01-06T03:21:04;24.75;23.50;12.00
59179;PMS7003;44956;52.422;20.818;2024-01-06T03:24:06;27.50;24.75;13.00
59179;PMS7003;44956;52.422;20.818;2024-01-06T03:27:11;25.50;22.00;13.00
59179;PMS7003;44956;52.422;20.818;2024-01-06T03:30:15;21.50;21.25;12.00
59179;PMS7003;44956;52.422;20.818;2024-01-06T03:33:18;32.75;26.50;13.25
59179;PMS7003;44956;52.422;20.818;2024-01-06T03:36:20;21.50;20.50;12.25
59179;PMS7003;44956;52.422;20.818;2024-01-06T03:39:24;34.25;23.50;12.25
59179;PMS7003;44956;52.422;20.818;2024-01-06T03:42:26;29.25;22.00;12.00
59179;PMS7003;44956;52.422;20.818;2024-01-06T03:45:29;22.75;19.50;13.00
59179;PMS7003;44956;52.422;20.818;2024-01-06T03:48:31;27.50;24.50;13.00
59179;PMS7003;44956;52.422;20.818;2024-01-06T03:51:35;31.25;25.25;12.75
59179;PMS7003;44956;52.422;20.818;2024-01-06T03:54:38;28.50;26.50;13.00
59179;PMS7003;44956;52.422;20.818;2024-01-06T03:57:41;25.50;20.50;10.50
59179;PMS7003;44956;52.422;20.818;2024-01-06T04:00:43;33.50;24.25;12.75
59179;PMS7003;44956;52.422;20.818;2024-01-06T04:03:46;26.50;21.75;10.50
59179;PMS7003;44956;52.422;20.818;2024-01-06T04:06:49;26.00;21.25;12.00
59179;PMS7003;44956;52.422;20.818;2024-01-06T04:09:52;26.50;21.25;12.50
59179;PMS7003;44956;52.422;20.818;2024-01-06T04:12:54;25.25;22.50;12.25
59179;PMS7003;44956;52.422;20.818;2024-01-06T04:15:57;34.75;27.50;12.75
59179;PMS7003;44956;52.422;20.818;2024-01-06T04:19:00;27.00;23.00;12.75
59179;PMS7003;44956;52.422;20.818;2024-01-06T04:22:03;26.00;21.75;11.00
59179;PMS7003;44956;52.422;20.818;2024-01-06T04:25:06;24.00;19.00;12.00
59179;PMS7003;44956;52.422;20.818;2024-01-06T04:28:09;29.25;22.25;12.25
59179;PMS7003;44956;52.422;20.818;2024-01-06T04:31:11;23.50;21.00;12.00
59179;PMS7003;44956;52.422;20.818;2024-01-06T04:34:14;23.75;21.25;11.75
59179;PMS7003;44956;52.422;20.818;2024-01-06T04:37:16;25.25;21.50;12.00
59179;PMS7003;44956;52.422;20.818;2024-01-06T04:40:19;26.50;23.75;13.50
59179;PMS7003;44956;52.422;20.818;2024-01-06T04:43:22;24.75;18.75;10.50
59179;PMS7003;44956;52.422;20.818;2024-01-06T04:46:24;24.50;24.50;11.00
59179;PMS7003;44956;52.422;20.818;2024-01-06T04:49:27;22.50;20.75;10.00
59179;PMS7003;44956;52.422;20.818;2024-01-06T04:52:30;23.25;21.25;12.25
59179;PMS7003;44956;52.422;20.818;2024-01-06T04:55:33;22.50;21.50;10.00
59179;PMS7003;44956;52.422;20.818;2024-01-06T04:58:35;26.00;21.00;13.00
59179;PMS7003;44956;52.422;20.818;2024-01-06T05:01:38;24.25;23.75;13.00
59179;PMS7003;44956;52.422;20.818;2024-01-06T05:04:41;24.75;21.25;13.25
59179;PMS7003;44956;52.422;20.818;2024-01-06T05:07:43;19.75;15.75;8.00
59179;PMS7003;44956;52.422;20.818;2024-01-06T05:10:46;26.25;20.50;12.00
59179;PMS7003;44956;52.422;20.818;2024-01-06T05:13:51;24.75;22.75;12.00
59179;PMS7003;44956;52.422;20.818;2024-01-06T05:16:53;22.00;19.00;11.50
59179;PMS7003;44956;52.422;20.818;2024-01-06T05:19:56;28.50;24.25;9.50
59179;PMS7003;44956;52.422;20.818;2024-01-06T05:22:59;34.25;23.50;12.50
59179;PMS7003;44956;52.422;20.818;2024-01-06T05:26:02;24.75;20.00;9.00
59179;PMS7003;44956;52.422;20.818;2024-01-06T05:29:04;25.50;23.00;12.00
59179;PMS7003;44956;52.422;20.818;2024-01-06T05:32:07;30.75;23.50;10.50
59179;PMS7003;44956;52.422;20.818;2024-01-06T05:35:10;22.50;21.00;10.00
59179;PMS7003;44956;52.422;20.818;2024-01-06T05:38:12;25.25;19.00;10.50
59179;PMS7003;44956;52.422;20.818;2024-01-06T05:41:15;30.75;19.25;9.00
59179;PMS7003;44956;52.422;20.818;2024-01-06T05:44:18;22.00;21.25;9.00
59179;PMS7003;44956;52.422;20.818;2024-01-06T05:47:20;14.50;10.00;4.00
59179;PMS7003;44956;52.422;20.818;2024-01-06T05:50:23;15.00;9.75;4.00
59179;PMS7003;44956;52.422;20.818;2024-01-06T05:53:26;21.50;17.50;8.00
59179;PMS7003;44956;52.422;20.818;2024-01-06T05:56:28;21.75;12.75;6.00
59179;PMS7003;44956;52.422;20.818;2024-01-06T05:59:34;24.25;20.00;10.50
59179;PMS7003;44956;52.422;20.818;2024-01-06T06:02:37;24.00;21.00;10.00
59179;PMS7003;44956;52.422;20.818;2024-01-06T06:05:42;28.50;19.50;10.00
59179;PMS7003;44956;52.422;20.818;2024-01-06T06:08:44;16.50;15.75;9.75
59179;PMS7003;44956;52.422;20.818;2024-01-06T06:11:47;22.25;20.25;10.00
59179;PMS7003;44956;52.422;20.818;2024-01-06T06:14:50;24.50;20.25;12.00
59179;PMS7003;44956;52.422;20.818;2024-01-06T06:17:53;26.00;19.00;10.00
59179;PMS7003;44956;52.422;20.818;2024-01-06T06:20:56;30.25;22.00;12.00
59179;PMS7003;44956;52.422;20.818;2024-01-06T06:23:59;19.00;16.00;12.00
59179;PMS7003;44956;52.422;20.818;2024-01-06T06:27:01;18.50;18.00;9.00
59179;PMS7003;44956;52.422;20.818;2024-01-06T06:30:05;23.00;18.25;10.00
59179;PMS7003;44956;52.422;20.818;2024-01-06T06:33:09;21.00;16.50;9.75
59179;PMS7003;44956;52.422;20.818;2024-01-06T06:36:12;25.25;21.25;12.25
59179;PMS7003;44956;52.422;20.818;2024-01-06T06:39:14;28.25;21.00;11.00
59179;PMS7003;44956;52.422;20.818;2024-01-06T06:42:17;26.00;18.50;11.00
59179;PMS7003;44956;52.422;20.818;2024-01-06T06:45:20;26.00;20.00;12.00
59179;PMS7003;44956;52.422;20.818;2024-01-06T06:48:24;30.00;20.75;10.00
59179;PMS7003;44956;52.422;20.818;2024-01-06T06:51:28;19.75;15.50;7.50
59179;PMS7003;44956;52.422;20.818;2024-01-06T06:54:32;25.00;18.00;6.50
59179;PMS7003;44956;52.422;20.818;2024-01-06T06:57:35;26.00;18.00;9.25
59179;PMS7003;44956;52.422;20.818;2024-01-06T07:00:38;22.75;18.50;9.50
59179;PMS7003;44956;52.422;20.818;2024-01-06T07:03:42;29.75;23.00;12.25
59179;PMS7003;44956;52.422;20.818;2024-01-06T07:06:44;24.00;18.50;10.00
59179;PMS7003;44956;52.422;20.818;2024-01-06T07:09:47;21.75;21.00;12.25
59179;PMS7003;44956;52.422;20.818;2024-01-06T07:12:50;14.75;13.50;6.75
59179;PMS7003;44956;52.422;20.818;2024-01-06T07:15:53;20.75;18.50;10.00
59179;PMS7003;44956;52.422;20.818;2024-01-06T07:19:08;27.00;16.00;9.50
59179;PMS7003;44956;52.422;20.818;2024-01-06T07:22:11;25.00;18.50;10.00
59179;PMS7003;44956;52.422;20.818;2024-01-06T07:25:14;20.75;20.75;10.50
59179;PMS7003;44956;52.422;20.818;2024-01-06T07:28:17;18.25;15.00;8.00
59179;PMS7003;44956;52.422;20.818;2024-01-06T07:31:20;22.50;16.50;9.25
59179;PMS7003;44956;52.422;20.818;2024-01-06T07:34:23;29.50;21.50;9.50
59179;PMS7003;44956;52.422;20.818;2024-01-06T07:37:27;21.50;18.75;9.00
59179;PMS7003;44956;52.422;20.818;2024-01-06T07:40:30;27.50;21.75;11.00
59179;PMS7003;44956;52.422;20.818;2024-01-06T07:43:32;13.50;13.00;8.50
59179;PMS7003;44956;52.422;20.818;2024-01-06T07:46:35;20.75;17.50;9.00
59179;PMS7003;44956;52.422;20.818;2024-01-06T07:49:39;23.25;18.00;7.50
59179;PMS7003;44956;52.422;20.818;2024-01-06T07:52:42;15.25;15.00;9.00
59179;PMS7003;44956;52.422;20.818;2024-01-06T07:55:44;18.50;13.00;4.00
59179;PMS7003;44956;52.422;20.818;2024-01-06T07:58:47;15.75;14.00;6.00
59179;PMS7003;44956;52.422;20.818;2024-01-06T08:01:49;16.25;15.00;6.00
59179;PMS7003;44956;52.422;20.818;2024-01-06T08:04:52;18.00;12.50;7.00
59179;PMS7003;44956;52.422;20.818;2024-01-06T08:07:57;23.75;15.75;8.00
59179;PMS7003;44956;52.422;20.818;2024-01-06T08:11:00;21.25;13.50;6.25
59179;PMS7003;44956;52.422;20.818;2024-01-06T08:14:03;19.00;14.50;8.50
59179;PMS7003;44956;52.422;20.818;2024-01-06T08:17:06;22.25;17.75;7.00
59179;PMS7003;44956;52.422;20.818;2024-01-06T08:20:08;17.25;12.25;9.00
59179;PMS7003;44956;52.422;20.818;2024-01-06T08:23:12;23.50;19.00;9.00
59179;PMS7003;44956;52.422;20.818;2024-01-06T08:26:14;21.75;16.00;9.00
59179;PMS7003;44956;52.422;20.818;2024-01-06T08:29:17;16.50;12.50;6.00
59179;PMS7003;44956;52.422;20.818;2024-01-06T08:32:21;12.50;11.50;6.25
59179;PMS7003;44956;52.422;20.818;2024-01-06T08:35:24;15.50;12.50;7.00
59179;PMS7003;44956;52.422;20.818;2024-01-06T08:38:27;13.50;11.00;6.50
59179;PMS7003;44956;52.422;20.818;2024-01-06T08:41:30;15.75;14.00;9.00
59179;PMS7003;44956;52.422;20.818;2024-01-06T08:44:32;17.00;15.50;7.25
59179;PMS7003;44956;52.422;20.818;2024-01-06T08:47:36;14.75;12.00;7.00
59179;PMS7003;44956;52.422;20.818;2024-01-06T08:50:39;17.00;14.50;6.50
59179;PMS7003;44956;52.422;20.818;2024-01-06T08:53:42;15.25;12.25;7.00
59179;PMS7003;44956;52.422;20.818;2024-01-06T08:56:45;17.50;14.00;9.00
59179;PMS7003;44956;52.422;20.818;2024-01-06T08:59:47;15.25;11.00;7.50
59179;PMS7003;44956;52.422;20.818;2024-01-06T09:02:50;18.50;13.00;6.25
59179;PMS7003;44956;52.422;20.818;2024-01-06T09:05:54;12.00;12.00;6.00
59179;PMS7003;44956;52.422;20.818;2024-01-06T09:08:57;15.25;12.75;7.00
59179;PMS7003;44956;52.422;20.818;2024-01-06T09:12:00;15.00;10.25;6.75
59179;PMS7003;44956;52.422;20.818;2024-01-06T09:15:03;15.00;12.75;6.50
59179;PMS7003;44956;52.422;20.818;2024-01-06T09:18:06;22.00;15.25;9.00
59179;PMS7003;44956;52.422;20.818;2024-01-06T09:21:09;16.50;15.50;9.25
59179;PMS7003;44956;52.422;20.818;2024-01-06T09:24:12;18.50;16.50;9.00
59179;PMS7003;44956;52.422;20.818;2024-01-06T09:27:14;18.75;18.25;10.50
59179;PMS7003;44956;52.422;20.818;2024-01-06T09:30:18;16.25;8.50;3.00
59179;PMS7003;44956;52.422;20.818;2024-01-06T09:33:22;16.00;16.00;9.75
59179;PMS7003;44956;52.422;20.818;2024-01-06T09:36:25;20.25;14.50;7.00
59179;PMS7003;44956;52.422;20.818;2024-01-06T09:39:27;25.25;18.00;9.75
59179;PMS7003;44956;52.422;20.818;2024-01-06T09:42:30;18.75;18.25;10.00
59179;PMS7003;44956;52.422;20.818;2024-01-06T09:45:33;23.50;18.50;9.00
59179;PMS7003;44956;52.422;20.818;2024-01-06T09:48:39;25.75;16.50;10.00
59179;PMS7003;44956;52.422;20.818;2024-01-06T09:51:44;22.75;18.00;10.00
59179;PMS7003;44956;52.422;20.818;2024-01-06T09:54:53;19.50;15.50;9.00
59179;PMS7003;44956;52.422;20.818;2024-01-06T09:57:57;18.75;18.00;8.00
59179;PMS7003;44956;52.422;20.818;2024-01-06T10:01:01;23.25;16.00;9.00
59179;PMS7003;44956;52.422;20.818;2024-01-06T10:04:04;18.50;17.50;9.00
59179;PMS7003;44956;52.422;20.818;2024-01-06T10:07:07;20.50;16.00;9.00
59179;PMS7003;44956;52.422;20.818;2024-01-06T10:10:09;24.75;19.00;9.25
59179;PMS7003;44956;52.422;20.818;2024-01-06T10:13:16;18.00;14.50;9.50
59179;PMS7003;44956;52.422;20.818;2024-01-06T10:16:20;22.25;20.00;12.00
59179;PMS7003;44956;52.422;20.818;2024-01-06T10:19:23;26.00;17.00;9.75
59179;PMS7003;44956;52.422;20.818;2024-01-06T10:22:26;26.25;21.00;11.00
59179;PMS7003;44956;52.422;20.818;2024-01-06T10:25:29;21.25;17.75;11.00
59179;PMS7003;44956;52.422;20.818;2024-01-06T10:28:31;21.50;19.00;9.00
59179;PMS7003;44956;52.422;20.818;2024-01-06T10:31:35;24.50;18.00;10.00
59179;PMS7003;44956;52.422;20.818;2024-01-06T10:34:38;20.00;18.50;9.50
59179;PMS7003;44956;52.422;20.818;2024-01-06T10:37:41;24.75;23.50;10.00
59179;PMS7003;44956;52.422;20.818;2024-01-06T10:40:56;14.50;8.75;4.00
59179;PMS7003;44956;52.422;20.818;2024-01-06T10:44:00;18.50;16.25;9.00
59179;PMS7003;44956;52.422;20.818;2024-01-06T10:47:03;20.00;15.50;7.50
59179;PMS7003;44956;52.422;20.818;2024-01-06T10:50:07;17.25;15.25;8.50
59179;PMS7003;44956;52.422;20.818;2024-01-06T10:53:10;22.00;14.50;7.50
59179;PMS7003;44956;52.422;20.818;2024-01-06T10:56:15;17.00;14.50;7.00
59179;PMS7003;44956;52.422;20.818;2024-01-06T10:59:18;17.75;15.00;7.50
59179;PMS7003;44956;52.422;20.818;2024-01-06T11:02:25;21.75;15.50;10.00
59179;PMS7003;44956;52.422;20.818;2024-01-06T11:05:29;19.00;13.25;9.25
59179;PMS7003;44956;52.422;20.818;2024-01-06T11:08:36;14.00;11.50;4.00
59179;PMS7003;44956;52.422;20.818;2024-01-06T11:11:51;15.50;14.50;7.00
59179;PMS7003;44956;52.422;20.818;2024-01-06T11:14:55;18.00;15.00;7.50
59179;PMS7003;44956;52.422;20.818;2024-01-06T11:17:58;18.50;15.75;7.00
59179;PMS7003;44956;52.422;20.818;2024-01-06T11:24:19;18.50;16.00;8.00
59179;PMS7003;44956;52.422;20.818;2024-01-06T11:27:27;16.00;16.00;7.50
59179;PMS7003;44956;52.422;20.818;2024-01-06T11:30:31;13.50;13.50;6.00
59179;PMS7003;44956;52.422;20.818;2024-01-06T11:33:42;17.25;12.00;7.00
59179;PMS7003;44956;52.422;20.818;2024-01-06T11:36:45;15.50;11.00;6.00
59179;PMS7003;44956;52.422;20.818;2024-01-06T11:39:51;15.00;13.00;7.00
59179;PMS7003;44956;52.422;20.818;2024-01-06T11:43:02;14.50;14.00;7.00
59179;PMS7003;44956;52.422;20.818;2024-01-06T11:46:07;14.75;14.50;7.50
59179;PMS7003;44956;52.422;20.818;2024-01-06T11:49:11;18.00;15.00;9.00
59179;PMS7003;44956;52.422;20.818;2024-01-06T11:52:14;15.33;12.67;6.00
59179;PMS7003;44956;52.422;20.818;2024-01-06T11:55:18;16.33;13.00;6.00
59179;PMS7003;44956;52.422;20.818;2024-01-06T11:58:21;17.00;9.25;3.00
59179;PMS7003;44956;52.422;20.818;2024-01-06T12:01:24;21.50;12.75;7.00
59179;PMS7003;44956;52.422;20.818;2024-01-06T12:04:27;14.00;12.75;7.00
59179;PMS7003;44956;52.422;20.818;2024-01-06T12:07:31;15.33;10.00;4.00
59179;PMS7003;44956;52.422;20.818;2024-01-06T12:10:37;15.33;13.00;7.00
59179;PMS7003;44956;52.422;20.818;2024-01-06T12:13:39;12.33;12.00;7.00
59179;PMS7003;44956;52.422;20.818;2024-01-06T12:16:42;20.33;13.00;8.33
59179;PMS7003;44956;52.422;20.818;2024-01-06T12:19:45;13.00;12.00;7.00
59179;PMS7003;44956;52.422;20.818;2024-01-06T12:22:50;10.00;10.00;6.00
59179;PMS7003;44956;52.422;20.818;2024-01-06T12:25:54;11.33;9.00;4.00
59179;PMS7003;44956;52.422;20.818;2024-01-06T12:28:57;10.67;7.67;6.00
59179;PMS7003;44956;52.422;20.818;2024-01-06T12:32:00;9.33;7.00;4.00
59179;PMS7003;44956;52.422;20.818;2024-01-06T12:35:03;13.00;9.67;6.33
59179;PMS7003;44956;52.422;20.818;2024-01-06T12:38:06;12.00;10.67;6.00
59179;PMS7003;44956;52.422;20.818;2024-01-06T12:41:11;18.00;13.67;4.67
59179;PMS7003;44956;52.422;20.818;2024-01-06T12:44:14;17.67;10.67;6.00
59179;PMS7003;44956;52.422;20.818;2024-01-06T12:47:17;15.33;13.00;7.00
59179;PMS7003;44956;52.422;20.818;2024-01-06T12:50:20;13.00;9.00;4.00
59179;PMS7003;44956;52.422;20.818;2024-01-06T12:53:22;9.67;7.00;6.00
59179;PMS7003;44956;52.422;20.818;2024-01-06T12:56:25;14.33;6.33;3.00
59179;PMS7003;44956;52.422;20.818;2024-01-06T12:59:28;11.00;9.00;6.00
59179;PMS7003;44956;52.422;20.818;2024-01-06T13:02:32;11.33;9.67;6.00
59179;PMS7003;44956;52.422;20.818;2024-01-06T13:05:35;14.33;8.33;4.00
59179;PMS7003;44956;52.422;20.818;2024-01-06T13:08:37;10.00;10.00;4.00
59179;PMS7003;44956;52.422;20.818;2024-01-06T13:11:40;8.33;7.67;3.67
59179;PMS7003;44956;52.422;20.818;2024-01-06T13:14:43;15.00;7.00;4.00
59179;PMS7003;44956;52.422;20.818;2024-01-06T13:17:46;21.00;12.00;6.00
59179;PMS7003;44956;52.422;20.818;2024-01-06T13:20:50;14.33;11.33;5.33
59179;PMS7003;44956;52.422;20.818;2024-01-06T13:23:53;14.33;10.00;4.00
59179;PMS7003;44956;52.422;20.818;2024-01-06T13:27:01;10.67;9.00;4.00
59179;PMS7003;44956;52.422;20.818;2024-01-06T13:30:05;10.33;7.67;6.00
59179;PMS7003;44956;52.422;20.818;2024-01-06T13:33:09;9.33;9.00;4.00
59179;PMS7003;44956;52.422;20.818;2024-01-06T13:36:13;15.33;11.33;4.00
59179;PMS7003;44956;52.422;20.818;2024-01-06T13:39:15;9.00;6.67;4.00
59179;PMS7003;44956;52.422;20.818;2024-01-06T13:42:23;9.00;7.00;4.00
59179;PMS7003;44956;52.422;20.818;2024-01-06T13:45:26;6.00;4.67;1.00
59179;PMS7003;44956;52.422;20.818;2024-01-06T13:48:29;6.00;6.00;3.00
59179;PMS7003;44956;52.422;20.818;2024-01-06T13:51:32;7.00;6.33;3.00
59179;PMS7003;44956;52.422;20.818;2024-01-06T13:54:35;10.00;10.00;4.00
59179;PMS7003;44956;52.422;20.818;2024-01-06T13:57:38;9.67;7.00;4.67
59179;PMS7003;44956;52.422;20.818;2024-01-06T14:00:44;9.00;4.00;3.00
59179;PMS7003;44956;52.422;20.818;2024-01-06T14:03:46;11.33;6.67;3.00
59179;PMS7003;44956;52.422;20.818;2024-01-06T14:06:49;6.67;6.67;3.00
59179;PMS7003;44956;52.422;20.818;2024-01-06T14:09:58;8.67;8.33;3.33
59179;PMS7003;44956;52.422;20.818;2024-01-06T14:13:01;12.00;9.00;3.00
59179;PMS7003;44956;52.422;20.818;2024-01-06T14:16:05;7.33;6.00;3.67
59179;PMS7003;44956;52.422;20.818;2024-01-06T14:19:10;7.67;4.00;4.00
59179;PMS7003;44956;52.422;20.818;2024-01-06T14:22:13;9.50;7.00;3.00
59179;PMS7003;44956;52.422;20.818;2024-01-06T14:25:17;10.00;9.00;3.75
59179;PMS7003;44956;52.422;20.818;2024-01-06T14:28:20;6.00;5.00;3.25
59179;PMS7003;44956;52.422;20.818;2024-01-06T14:31:24;8.67;6.00;3.00
59179;PMS7003;44956;52.422;20.818;2024-01-06T14:34:27;10.00;9.00;3.67
59179;PMS7003;44956;52.422;20.818;2024-01-06T14:37:30;6.75;5.50;3.00
59179;PMS7003;44956;52.422;20.818;2024-01-06T14:40:32;4.00;4.00;2.00
59179;PMS7003;44956;52.422;20.818;2024-01-06T14:43:35;13.50;9.75;4.00
59179;PMS7003;44956;52.422;20.818;2024-01-06T14:46:38;11.25;9.00;3.50
59179;PMS7003;44956;52.422;20.818;2024-01-06T14:49:40;11.33;6.33;3.00
59179;PMS7003;44956;52.422;20.818;2024-01-06T14:52:43;4.00;4.00;1.67
59179;PMS7003;44956;52.422;20.818;2024-01-06T14:55:46;3.00;3.00;1.00
59179;PMS7003;44956;52.422;20.818;2024-01-06T14:58:48;6.00;6.00;3.00
59179;PMS7003;44956;52.422;20.818;2024-01-06T15:01:51;7.00;4.00;1.00
59179;PMS7003;44956;52.422;20.818;2024-01-06T15:04:54;10.00;10.00;3.33
59179;PMS7003;44956;52.422;20.818;2024-01-06T15:07:58;5.33;5.33;1.67
59179;PMS7003;44956;52.422;20.818;2024-01-06T15:11:00;10.00;6.00;3.00
59179;PMS7003;44956;52.422;20.818;2024-01-06T15:14:05;9.67;9.00;3.00
59179;PMS7003;44956;52.422;20.818;2024-01-06T15:17:11;7.67;6.67;3.67
59179;PMS7003;44956;52.422;20.818;2024-01-06T15:20:14;9.25;7.00;4.00
59179;PMS7003;44956;52.422;20.818;2024-01-06T15:23:16;10.00;8.50;5.50
59179;PMS7003;44956;52.422;20.818;2024-01-06T15:26:24;10.00;8.00;5.00
59179;PMS7003;44956;52.422;20.818;2024-01-06T15:29:27;9.50;8.00;3.75
59179;PMS7003;44956;52.422;20.818;2024-01-06T15:32:30;10.00;6.50;3.00
59179;PMS7003;44956;52.422;20.818;2024-01-06T15:35:33;15.25;11.50;5.00
59179;PMS7003;44956;52.422;20.818;2024-01-06T15:38:35;9.50;9.50;4.00
59179;PMS7003;44956;52.422;20.818;2024-01-06T15:41:39;6.00;6.00;4.00
59179;PMS7003;44956;52.422;20.818;2024-01-06T15:44:42;9.25;7.00;3.75
59179;PMS7003;44956;52.422;20.818;2024-01-06T15:47:44;9.75;9.75;5.50
59179;PMS7003;44956;52.422;20.818;2024-01-06T15:50:47;10.00;8.50;4.00
59179;PMS7003;44956;52.422;20.818;2024-01-06T15:53:50;12.00;9.00;6.00
59179;PMS7003;44956;52.422;20.818;2024-01-06T15:56:53;10.25;9.75;6.00
59179;PMS7003;44956;52.422;20.818;2024-01-06T15:59:58;9.25;7.00;5.00
59179;PMS7003;44956;52.422;20.818;2024-01-06T16:03:02;15.00;12.25;6.75
59179;PMS7003;44956;52.422;20.818;2024-01-06T16:06:05;15.25;11.50;7.00
59179;PMS7003;44956;52.422;20.818;2024-01-06T16:09:08;15.00;12.75;6.00
59179;PMS7003;44956;52.422;20.818;2024-01-06T16:12:12;15.00;9.25;6.25
59179;PMS7003;44956;52.422;20.818;2024-01-06T16:15:15;15.00;10.00;3.00
59179;PMS7003;44956;52.422;20.818;2024-01-06T16:18:18;9.50;9.50;5.50
59179;PMS7003;44956;52.422;20.818;2024-01-06T16:21:22;9.00;7.00;4.00
59179;PMS7003;44956;52.422;20.818;2024-01-06T16:24:26;10.25;9.00;4.00
59179;PMS7003;44956;52.422;20.818;2024-01-06T16:27:31;15.75;14.00;7.50
59179;PMS7003;44956;52.422;20.818;2024-01-06T16:30:33;12.50;11.25;7.00
59179;PMS7003;44956;52.422;20.818;2024-01-06T16:33:37;12.50;10.00;4.00
59179;PMS7003;44956;52.422;20.818;2024-01-06T16:36:39;13.50;11.00;4.00
59179;PMS7003;44956;52.422;20.818;2024-01-06T16:39:44;13.00;9.50;4.00
59179;PMS7003;44956;52.422;20.818;2024-01-06T16:42:46;14.00;11.75;4.00
59179;PMS7003;44956;52.422;20.818;2024-01-06T16:45:49;15.00;11.00;5.75
59179;PMS7003;44956;52.422;20.818;2024-01-06T16:48:52;8.00;8.00;4.00
59179;PMS7003;44956;52.422;20.818;2024-01-06T16:51:55;8.00;8.00;4.00
59179;PMS7003;44956;52.422;20.818;2024-01-06T16:54:58;6.25;5.50;3.00
59179;PMS7003;44956;52.422;20.818;2024-01-06T16:58:01;9.25;8.50;4.00
59179;PMS7003;44956;52.422;20.818;2024-01-06T17:01:05;12.00;9.00;6.00
59179;PMS7003;44956;52.422;20.818;2024-01-06T17:04:09;10.00;9.00;4.00
59179;PMS7003;44956;52.422;20.818;2024-01-06T17:07:15;9.75;4.50;1.00
59179;PMS7003;44956;52.422;20.818;2024-01-06T17:10:18;12.75;9.75;4.00
59179;PMS7003;44956;52.422;20.818;2024-01-06T17:13:21;10.50;9.00;4.00